createdAt,value
2022-08-17T00:00:51.886Z,73.57
2022-08-17T00:03:31.674Z,73.47
2022-08-17T00:06:07.251Z,75.35
2022-08-17T00:08:40.705Z,67.70
2022-08-17T00:13:44.481Z,71.22
2022-08-17T00:19:06.830Z,79.10
2022-08-17T00:22:31.234Z,86.82
2022-08-17T00:24:40.916Z,84.65
2022-08-17T00:27:10.793Z,84.50
2022-08-17T00:29:40.641Z,84.80
2022-08-17T00:33:12.681Z,87.07
2022-08-17T00:35:11.549Z,81.97
2022-08-17T00:37:43.853Z,86.60
2022-08-17T00:40:18.221Z,86.10
2022-08-17T00:42:50.976Z,90.95
2022-08-17T00:45:23.443Z,74.93
2022-08-17T00:47:53.286Z,94.75
2022-08-17T00:50:25.701Z,99.28
2022-08-17T00:53:00.996Z,100.47
2022-08-17T00:55:38.873Z,91.30
2022-08-17T00:58:09.716Z,104.20
2022-08-17T01:00:44.814Z,101.18
2022-08-17T01:03:19.614Z,102.13
2022-08-17T01:05:57.658Z,105.63
2022-08-17T01:08:31.308Z,103.95
2022-08-17T01:16:17.501Z,98.68
2022-08-17T01:18:51.430Z,114.38
2022-08-17T01:21:30.703Z,110.15
2022-08-17T01:24:05.561Z,111.60
2022-08-17T01:26:36.089Z,107.93
2022-08-17T01:29:08.472Z,120.25
2022-08-17T01:31:46.107Z,110.53
2022-08-17T01:34:18.569Z,109.88
2022-08-17T01:36:51.464Z,104.63
2022-08-17T01:39:30.520Z,115.47
2022-08-17T01:42:07.677Z,81.50
2022-08-17T01:44:40.351Z,82.53
2022-08-17T01:47:12.500Z,69.85
2022-08-17T01:49:42.818Z,75.45
2022-08-17T01:52:14.430Z,73.63
2022-08-17T01:54:50.138Z,76.68
2022-08-17T01:57:23.071Z,70.88
2022-08-17T01:59:53.144Z,74.95
2022-08-17T02:02:31.318Z,65.10
2022-08-17T02:05:01.586Z,61.92
2022-08-17T02:07:31.824Z,62.05
2022-08-17T02:10:22.213Z,64.95
2022-08-17T02:12:52.304Z,75.35
2022-08-17T02:15:22.680Z,71.35
2022-08-17T02:17:54.796Z,79.65
2022-08-17T02:20:42.107Z,73.28
2022-08-17T02:23:15.420Z,68.03
2022-08-17T02:25:50.409Z,71.67
2022-08-17T02:28:21.267Z,84.72
2022-08-17T02:31:00.789Z,74.82
2022-08-17T02:33:42.955Z,72.07
2022-08-17T02:36:15.468Z,63.55
2022-08-17T02:38:46.698Z,65.43
2022-08-17T02:41:20.081Z,64.95
2022-08-17T02:43:50.517Z,72.63
2022-08-17T02:46:20.474Z,66.80
2022-08-17T02:48:50.704Z,60.22
2022-08-17T02:51:20.779Z,58.85
2022-08-17T02:53:50.667Z,56.03
2022-08-17T02:56:23.310Z,50.30
2022-08-17T02:58:52.984Z,49.87
2022-08-17T03:01:22.823Z,44.58
2022-08-17T03:03:53.015Z,41.08
2022-08-17T03:06:22.716Z,35.63
2022-08-17T03:08:52.604Z,35.95
2022-08-17T03:11:25.020Z,32.72
2022-08-17T03:13:54.983Z,36.10
2022-08-17T03:16:25.123Z,32.35
2022-08-17T03:18:55.147Z,32.75
2022-08-17T03:21:25.031Z,34.28
2022-08-17T03:23:55.216Z,28.45
2022-08-17T03:26:31.148Z,27.80
2022-08-17T03:29:01.262Z,30.67
2022-08-17T03:31:32.016Z,29.75
2022-08-17T03:34:05.324Z,24.00
2022-08-17T03:36:38.402Z,32.20
2022-08-17T03:39:08.135Z,30.10
2022-08-17T03:41:43.254Z,29.92
2022-08-17T03:44:13.014Z,31.85
2022-08-17T03:46:55.153Z,26.90
2022-08-17T03:49:39.397Z,27.55
2022-08-17T03:52:22.159Z,30.75
2022-08-17T03:55:07.219Z,37.88
2022-08-17T03:57:40.171Z,35.65
2022-08-17T04:00:11.910Z,34.53
2022-08-17T04:02:41.937Z,34.42
2022-08-17T04:05:12.198Z,40.55
2022-08-17T04:07:41.921Z,37.83
2022-08-17T04:10:11.972Z,34.88
2022-08-17T04:12:51.152Z,35.47
2022-08-17T04:15:21.594Z,36.97
2022-08-17T04:17:51.795Z,35.03
2022-08-17T04:20:24.385Z,42.83
2022-08-17T04:23:02.357Z,39.73
2022-08-17T04:25:37.640Z,38.78
2022-08-17T04:28:15.759Z,46.80
2022-08-17T04:30:47.905Z,42.33
2022-08-17T04:33:19.861Z,45.97
2022-08-17T04:35:52.152Z,41.08
2022-08-17T04:38:23.177Z,49.13
2022-08-17T04:41:06.157Z,46.80
2022-08-17T04:43:43.307Z,46.25
2022-08-17T04:46:17.566Z,44.88
2022-08-17T04:48:49.695Z,50.85
2022-08-17T04:51:22.962Z,46.10
2022-08-17T04:53:55.333Z,50.35
2022-08-17T04:56:28.015Z,53.30
2022-08-17T04:59:15.688Z,53.57
2022-08-17T05:01:47.855Z,57.92
2022-08-17T05:04:33.137Z,55.28
2022-08-17T05:07:05.477Z,56.55
2022-08-17T05:09:38.057Z,59.22
2022-08-17T05:12:11.041Z,61.40
2022-08-17T05:14:44.478Z,53.88
2022-08-17T05:19:46.564Z,58.42
2022-08-17T05:22:18.650Z,53.13
2022-08-17T05:24:53.905Z,60.97
2022-08-17T05:27:25.630Z,55.55
2022-08-17T05:30:05.433Z,55.65
2022-08-17T05:32:47.965Z,64.72
2022-08-17T05:35:18.067Z,62.95
2022-08-17T05:37:47.787Z,59.35
2022-08-17T05:40:19.051Z,57.35
2022-08-17T05:42:50.020Z,59.30
2022-08-17T05:45:54.417Z,54.72
2022-08-17T05:48:18.263Z,54.30
2022-08-17T05:50:54.868Z,55.47
2022-08-17T05:53:36.274Z,57.88
2022-08-17T05:56:29.324Z,55.67
2022-08-17T05:59:08.128Z,54.47
2022-08-17T06:01:54.747Z,56.85
2022-08-17T06:04:36.859Z,58.03
2022-08-17T06:07:17.495Z,61.22
2022-08-17T06:09:55.769Z,58.47
2022-08-17T06:12:47.408Z,55.28
2022-08-17T06:15:36.992Z,58.92
2022-08-17T06:18:18.899Z,61.67
2022-08-17T06:20:55.199Z,64.82
2022-08-17T06:23:35.991Z,60.55
2022-08-17T06:26:14.553Z,60.15
2022-08-17T06:28:51.084Z,64.65
2022-08-17T06:31:28.024Z,58.10
2022-08-17T06:34:04.057Z,63.33
2022-08-17T06:36:49.765Z,57.90
2022-08-17T06:39:36.367Z,57.47
2022-08-17T06:43:01.967Z,58.13
2022-08-17T06:45:13.560Z,58.83
2022-08-17T06:47:50.579Z,56.55
2022-08-17T06:50:35.890Z,52.88
2022-08-17T06:53:18.046Z,52.88
2022-08-17T06:55:53.304Z,51.15
2022-08-17T06:58:29.930Z,51.13
2022-08-17T07:01:01.843Z,53.53
2022-08-17T07:03:40.858Z,53.38
2022-08-17T07:06:17.871Z,48.70
2022-08-17T07:08:56.237Z,43.15
2022-08-17T07:11:37.730Z,48.80
2022-08-17T07:14:20.639Z,43.72
2022-08-17T07:16:53.422Z,50.83
2022-08-17T07:19:30.811Z,43.28
2022-08-17T07:22:14.550Z,46.45
2022-08-17T07:27:22.230Z,39.42
2022-08-17T07:29:56.695Z,38.08
2022-08-17T07:32:32.492Z,35.35
2022-08-17T07:35:16.260Z,46.08
2022-08-17T07:40:37.027Z,39.40
2022-08-17T07:43:22.244Z,40.47
2022-08-17T07:46:30.617Z,42.33
2022-08-17T07:49:19.246Z,45.70
2022-08-17T07:52:13.522Z,45.63
2022-08-17T07:54:55.336Z,45.25
2022-08-17T07:57:43.160Z,44.88
2022-08-17T08:00:31.404Z,44.13
2022-08-17T08:03:16.901Z,44.72
2022-08-17T08:05:55.413Z,46.55
2022-08-17T08:08:35.876Z,44.20
2022-08-17T08:11:16.995Z,43.67
2022-08-17T08:13:50.096Z,38.88
2022-08-17T08:16:32.584Z,41.58
2022-08-17T08:19:08.632Z,36.05
2022-08-17T08:21:49.427Z,36.22
2022-08-17T08:24:41.363Z,35.42
2022-08-17T08:27:31.407Z,29.95
2022-08-17T08:30:12.609Z,34.10
2022-08-17T08:33:17.455Z,33.70
2022-08-17T08:35:55.221Z,26.77
2022-08-17T08:38:40.068Z,26.60
2022-08-17T08:41:25.909Z,27.10
2022-08-17T08:44:11.405Z,28.20
2022-08-17T08:46:52.235Z,26.58
2022-08-17T08:50:09.498Z,27.10
2022-08-17T08:53:14.536Z,31.63
2022-08-17T08:55:52.419Z,31.25
2022-08-17T08:58:41.956Z,29.83
2022-08-17T09:01:24.042Z,30.85
2022-08-17T09:04:24.257Z,31.98
2022-08-17T09:07:17.375Z,25.45
2022-08-17T09:10:01.724Z,29.65
2022-08-17T09:12:45.448Z,29.10
2022-08-17T09:18:32.354Z,30.95
2022-08-17T09:20:53.907Z,34.72
2022-08-17T09:23:36.945Z,30.92
2022-08-17T09:26:14.846Z,34.88
2022-08-17T09:28:49.909Z,32.60
2022-08-17T09:31:25.997Z,34.00
2022-08-17T09:34:05.899Z,32.28
2022-08-17T09:36:43.597Z,31.48
2022-08-17T09:39:18.777Z,35.47
2022-08-17T09:41:54.777Z,29.38
2022-08-17T09:44:31.474Z,31.48
2022-08-17T09:47:08.358Z,35.65
2022-08-17T09:49:49.641Z,33.20
2022-08-17T09:52:23.227Z,37.28
2022-08-17T09:54:55.258Z,35.38
2022-08-17T09:57:40.923Z,41.03
2022-08-17T10:00:28.005Z,37.70
2022-08-17T10:03:19.933Z,41.22
2022-08-17T10:06:00.621Z,38.25
2022-08-17T10:08:39.634Z,34.22
2022-08-17T10:11:19.480Z,32.55
2022-08-17T10:13:57.179Z,33.65
2022-08-17T10:16:39.075Z,35.78
2022-08-17T10:19:18.814Z,34.40
2022-08-17T10:22:14.527Z,34.25
2022-08-17T10:25:22.480Z,36.13
2022-08-17T10:27:57.591Z,36.95
2022-08-17T10:30:36.328Z,37.13
2022-08-17T10:33:15.636Z,41.13
2022-08-17T10:35:53.070Z,38.20
2022-08-17T10:38:49.818Z,36.03
2022-08-17T10:41:30.883Z,37.58
2022-08-17T10:44:37.374Z,34.80
2022-08-17T10:47:09.295Z,34.05
2022-08-17T10:49:48.058Z,28.40
2022-08-17T10:52:50.275Z,30.70
2022-08-17T10:55:25.880Z,26.98
2022-08-17T10:58:21.219Z,26.23
2022-08-17T11:01:12.990Z,27.80
2022-08-17T11:04:06.978Z,25.20
2022-08-17T11:09:31.591Z,30.08
2022-08-17T11:12:31.125Z,28.20
2022-08-17T11:15:31.423Z,27.92
2022-08-17T11:18:24.411Z,27.58
2022-08-17T11:21:17.775Z,26.92
2022-08-17T11:24:05.141Z,32.15
2022-08-17T11:26:42.281Z,29.88
2022-08-17T11:29:24.979Z,34.35
2022-08-17T11:32:13.698Z,32.42
2022-08-17T11:34:46.220Z,31.02
2022-08-17T11:37:40.408Z,32.63
2022-08-17T11:40:20.871Z,30.23
2022-08-17T11:43:15.482Z,34.78
2022-08-17T11:46:17.415Z,37.78
2022-08-17T11:49:13.541Z,39.60
2022-08-17T11:52:15.477Z,41.67
2022-08-17T11:54:49.213Z,39.20
2022-08-17T11:58:01.898Z,38.40
2022-08-17T12:00:56.676Z,38.38
2022-08-17T12:03:55.465Z,38.58
2022-08-17T12:06:46.914Z,43.78
2022-08-17T12:09:24.659Z,40.80
2022-08-17T12:12:12.500Z,40.28
2022-08-17T12:15:09.644Z,44.25
2022-08-17T12:17:46.820Z,46.55
2022-08-17T12:20:25.136Z,47.97
2022-08-17T12:23:06.894Z,48.83
2022-08-17T12:26:09.945Z,51.03
2022-08-17T12:29:18.283Z,55.05
2022-08-17T12:32:26.609Z,50.95
2022-08-17T12:34:57.919Z,50.35
2022-08-17T12:37:38.190Z,46.10
2022-08-17T12:40:31.011Z,51.25
2022-08-17T12:43:06.668Z,46.33
2022-08-17T12:45:42.053Z,43.85
2022-08-17T12:48:15.418Z,49.28
2022-08-17T12:50:47.798Z,51.58
2022-08-17T12:53:25.205Z,55.08
2022-08-17T12:55:56.796Z,52.28
2022-08-17T12:58:29.409Z,50.38
2022-08-17T13:01:05.398Z,57.87
2022-08-17T13:03:44.057Z,52.55
2022-08-17T13:06:31.127Z,52.95
2022-08-17T13:09:12.884Z,56.50
2022-08-17T13:11:50.755Z,48.80
2022-08-17T13:14:21.591Z,53.47
2022-08-17T13:16:56.119Z,46.80
2022-08-17T13:19:40.385Z,52.33
2022-08-17T13:22:15.519Z,45.47
2022-08-17T13:24:56.911Z,47.80
2022-08-17T13:27:32.390Z,46.63
2022-08-17T13:30:10.551Z,47.15
2022-08-17T13:32:45.100Z,47.72
2022-08-17T13:35:43.082Z,47.15
2022-08-17T13:38:20.021Z,47.40
2022-08-17T13:40:55.642Z,51.45
2022-08-17T13:43:45.705Z,51.88
2022-08-17T13:46:22.660Z,52.10
2022-08-17T13:49:05.506Z,48.25
2022-08-17T13:51:46.696Z,47.87
2022-08-17T13:54:31.806Z,44.25
2022-08-17T13:57:08.030Z,49.25
2022-08-17T13:59:54.707Z,47.13
2022-08-17T14:02:28.592Z,49.55
2022-08-17T14:05:00.881Z,46.47
2022-08-17T14:07:40.090Z,44.72
2022-08-17T14:10:15.648Z,43.28
2022-08-17T14:12:50.331Z,49.63
2022-08-17T14:15:23.613Z,44.85
2022-08-17T14:18:13.469Z,46.70
2022-08-17T14:20:43.231Z,42.35
2022-08-17T14:23:13.485Z,43.35
2022-08-17T14:25:43.344Z,43.55
2022-08-17T14:28:15.838Z,47.15
2022-08-17T14:30:46.544Z,41.17
2022-08-17T14:33:25.727Z,43.25
2022-08-17T14:35:56.177Z,43.53
2022-08-17T14:38:28.091Z,40.72
2022-08-17T14:40:57.983Z,42.60
2022-08-17T14:43:36.034Z,40.45
2022-08-17T14:46:05.947Z,38.10
2022-08-17T14:48:40.688Z,39.42
2022-08-17T14:51:10.722Z,38.53
2022-08-17T14:53:46.117Z,38.72
2022-08-17T14:56:16.253Z,38.30
2022-08-17T14:58:49.230Z,39.40
2022-08-17T15:01:19.153Z,39.38
2022-08-17T15:03:48.996Z,40.65
2022-08-17T15:06:19.878Z,38.70
2022-08-17T15:08:49.788Z,39.83
2022-08-17T15:11:21.245Z,39.08
2022-08-17T15:13:53.795Z,38.88
2022-08-17T15:16:27.163Z,35.33
2022-08-17T15:21:34.014Z,37.80
2022-08-17T15:24:05.607Z,29.67
2022-08-17T15:26:35.513Z,34.53
2022-08-17T15:29:09.832Z,27.60
2022-08-17T15:31:44.682Z,30.20
2022-08-17T15:34:17.467Z,29.10
2022-08-17T15:36:49.835Z,28.05
2022-08-17T15:39:19.933Z,32.28
2022-08-17T15:42:12.295Z,30.02
2022-08-17T15:44:45.522Z,29.05
2022-08-17T15:47:16.996Z,29.98
2022-08-17T15:49:49.198Z,28.50
2022-08-17T15:52:22.615Z,31.30
2022-08-17T15:54:53.503Z,27.80
2022-08-17T16:07:35.369Z,26.95
2022-08-17T16:10:06.268Z,29.95
2022-08-17T16:12:39.736Z,32.67
2022-08-17T16:15:10.754Z,30.60
2022-08-17T16:17:44.394Z,29.88
2022-08-17T16:20:20.421Z,29.40
2022-08-17T16:22:52.638Z,30.60
2022-08-17T16:25:47.110Z,28.27
2022-08-17T16:28:20.363Z,28.15
2022-08-17T16:30:50.344Z,26.90
2022-08-17T16:33:22.806Z,30.38
2022-08-17T16:35:52.908Z,28.50
2022-08-17T16:38:22.742Z,29.23
2022-08-17T16:40:52.457Z,29.00
2022-08-17T16:43:22.209Z,28.35
2022-08-17T16:45:52.399Z,32.67
2022-08-17T16:48:25.634Z,30.48
2022-08-17T16:51:03.146Z,31.40
2022-08-17T16:53:40.121Z,31.83
2022-08-17T16:56:09.868Z,28.05
2022-08-17T16:58:41.127Z,33.42
2022-08-17T17:01:14.368Z,31.52
2022-08-17T17:03:54.064Z,32.85
2022-08-17T17:06:38.747Z,33.03
2022-08-17T17:09:14.579Z,32.65
2022-08-17T17:11:47.311Z,32.53
2022-08-17T17:14:25.896Z,33.13
2022-08-17T17:17:06.556Z,37.88
2022-08-17T17:19:53.963Z,32.28
2022-08-17T17:33:22.643Z,29.95
2022-08-17T17:36:04.976Z,34.15
2022-08-17T17:38:46.143Z,29.88
2022-08-17T17:41:26.163Z,30.48
2022-08-17T17:44:05.614Z,36.25
2022-08-17T17:46:49.462Z,30.50
2022-08-17T17:49:23.665Z,31.15
2022-08-17T17:55:21.271Z,31.77
2022-08-17T17:58:10.524Z,31.70
2022-08-17T18:00:47.529Z,35.38
2022-08-17T18:03:30.634Z,33.33
2022-08-17T18:06:17.550Z,31.60
2022-08-17T18:09:08.807Z,31.88
2022-08-17T18:12:04.884Z,32.90
2022-08-17T18:14:54.297Z,31.05
2022-08-17T18:17:24.489Z,31.75
2022-08-17T18:19:57.895Z,31.17
2022-08-17T18:25:45.647Z,32.85
2022-08-17T18:28:27.229Z,31.27
2022-08-17T18:31:10.728Z,33.38
2022-08-17T18:33:41.281Z,33.42
2022-08-17T18:36:17.150Z,30.80
2022-08-17T18:38:47.125Z,34.88
2022-08-17T18:41:37.150Z,32.20
2022-08-17T18:44:29.100Z,31.20
2022-08-17T18:47:16.861Z,32.83
2022-08-17T18:49:50.078Z,32.75
2022-08-17T18:52:26.990Z,32.72
2022-08-17T18:55:11.709Z,28.42
2022-08-17T18:57:46.821Z,34.58
2022-08-17T19:00:21.408Z,27.00
2022-08-17T19:02:56.498Z,32.30
2022-08-17T19:05:41.539Z,28.02
2022-08-17T19:08:25.416Z,28.20
2022-08-17T19:11:00.725Z,28.08
2022-08-17T19:13:41.655Z,26.48
2022-08-17T19:16:18.151Z,30.52
2022-08-17T19:18:52.498Z,28.13
2022-08-17T19:21:31.535Z,24.95
2022-08-17T19:24:08.492Z,24.17
2022-08-17T19:26:53.267Z,27.85
2022-08-17T19:29:35.367Z,27.17
2022-08-17T19:32:07.418Z,30.50
2022-08-17T19:34:44.874Z,25.98
2022-08-17T19:37:25.995Z,28.60
2022-08-17T19:40:05.470Z,30.92
2022-08-17T19:42:47.567Z,30.73
2022-08-17T19:45:35.896Z,29.23
2022-08-17T19:48:16.789Z,26.13
2022-08-17T19:50:53.283Z,20.85
2022-08-17T19:54:01.779Z,22.13
2022-08-17T19:56:35.578Z,22.23
2022-08-17T19:59:15.851Z,24.08
2022-08-17T20:01:54.297Z,23.52
2022-08-17T20:04:37.397Z,17.77
2022-08-17T20:07:17.202Z,28.27
2022-08-17T20:09:51.748Z,22.35
2022-08-17T20:12:24.425Z,19.85
2022-08-17T20:14:58.857Z,19.60
2022-08-17T20:17:40.690Z,19.10
2022-08-17T20:20:24.118Z,16.85
2022-08-17T20:23:06.513Z,19.05
2022-08-17T20:25:42.278Z,19.30
2022-08-17T20:28:22.586Z,21.60
2022-08-17T20:30:52.510Z,20.52
2022-08-17T20:33:39.867Z,20.80
2022-08-17T20:36:20.686Z,20.05
2022-08-17T20:38:53.895Z,18.45
2022-08-17T20:41:25.451Z,19.70
2022-08-17T20:44:07.369Z,22.35
2022-08-17T20:47:06.282Z,21.25
2022-08-17T20:49:52.039Z,23.17
2022-08-17T20:52:50.918Z,22.38
2022-08-17T20:55:55.691Z,22.25
2022-08-17T20:58:48.606Z,22.35
2022-08-17T21:01:26.950Z,21.02
2022-08-17T21:04:08.825Z,21.45
2022-08-17T21:07:17.414Z,20.80
2022-08-17T21:09:49.077Z,21.77
2022-08-17T21:12:43.267Z,21.60
2022-08-17T21:15:40.019Z,24.52
2022-08-17T21:18:21.230Z,21.10
2022-08-17T21:21:17.564Z,21.33
2022-08-17T21:24:17.272Z,22.25
2022-08-17T21:27:02.033Z,23.60
2022-08-17T21:29:40.486Z,24.27
2022-08-17T21:32:23.738Z,22.48
2022-08-17T21:37:45.463Z,23.33
2022-08-17T21:40:30.987Z,21.25
2022-08-17T21:43:08.890Z,22.38
2022-08-17T21:45:41.356Z,25.58
2022-08-17T21:48:18.651Z,23.92
2022-08-17T21:51:01.801Z,22.15
2022-08-17T21:53:42.251Z,21.38
2022-08-17T21:56:31.435Z,21.63
2022-08-17T21:59:07.466Z,21.88
2022-08-17T22:01:43.135Z,22.13
2022-08-17T22:04:22.360Z,22.40
2022-08-17T22:06:57.218Z,25.58
2022-08-17T22:09:38.773Z,23.88
2022-08-17T22:12:14.520Z,24.98
2022-08-17T22:14:52.198Z,24.75
2022-08-17T22:17:28.622Z,27.55
2022-08-17T22:20:06.948Z,30.15
2022-08-17T22:23:01.511Z,26.98
2022-08-17T22:25:29.923Z,26.17
2022-08-17T22:28:09.442Z,26.65
2022-08-17T22:30:41.098Z,27.58
2022-08-17T22:33:38.389Z,24.63
2022-08-17T22:36:14.573Z,25.45
2022-08-17T22:38:45.860Z,26.70
2022-08-17T22:41:51.429Z,25.73
2022-08-17T22:44:32.094Z,26.77
2022-08-17T22:47:11.244Z,24.08
2022-08-17T22:49:53.167Z,24.67
2022-08-17T22:53:01.209Z,26.67
2022-08-17T22:55:52.746Z,21.58
2022-08-17T22:58:41.741Z,20.77
2022-08-17T23:01:36.375Z,23.65
2022-08-17T23:04:09.876Z,24.02
2022-08-17T23:09:12.530Z,22.50
2022-08-17T23:11:50.031Z,21.52
2022-08-17T23:14:22.586Z,21.95
2022-08-17T23:16:55.164Z,20.20
2022-08-17T23:19:24.958Z,22.43
2022-08-17T23:21:55.499Z,23.02
2022-08-17T23:24:28.809Z,20.98
2022-08-17T23:27:02.307Z,21.67
2022-08-17T23:29:32.273Z,21.52
2022-08-17T23:32:04.988Z,24.17
2022-08-17T23:34:37.141Z,23.95
2022-08-17T23:37:09.643Z,24.35
2022-08-17T23:39:39.713Z,22.98
2022-08-17T23:42:12.335Z,24.02
2022-08-17T23:44:44.847Z,26.60
2022-08-17T23:47:18.012Z,28.20
2022-08-17T23:49:48.692Z,25.30
2022-08-17T23:52:28.102Z,27.30
2022-08-17T23:54:57.936Z,22.73
2022-08-17T23:57:33.601Z,27.90
